createdAt,value
2018-07-25T00:00:12.577Z,9.00
2018-07-25T00:01:18.330Z,8.57
2018-07-25T00:02:23.848Z,9.63
2018-07-25T00:03:29.298Z,10.77
2018-07-25T00:04:34.716Z,11.10
2018-07-25T00:05:40.141Z,11.40
2018-07-25T00:06:45.604Z,10.43
2018-07-25T00:07:51.144Z,11.23
2018-07-25T00:08:56.683Z,11.60
2018-07-25T00:10:02.146Z,11.40
2018-07-25T00:11:07.625Z,12.20
2018-07-25T00:12:13.126Z,11.33
2018-07-25T00:13:18.873Z,12.80
2018-07-25T00:14:24.435Z,12.30
2018-07-25T00:15:29.884Z,11.23
2018-07-25T00:16:35.801Z,11.40
2018-07-25T00:17:41.275Z,12.00
2018-07-25T00:18:47.147Z,12.20
2018-07-25T00:19:52.881Z,11.30
2018-07-25T00:20:58.578Z,11.77
2018-07-25T00:22:03.993Z,12.27
2018-07-25T00:23:09.560Z,12.30
2018-07-25T00:24:15.019Z,12.93
2018-07-25T00:25:20.466Z,11.97
2018-07-25T00:26:25.956Z,12.83
2018-07-25T00:27:31.419Z,11.47
2018-07-25T00:28:36.853Z,12.53
2018-07-25T00:29:42.296Z,11.77
2018-07-25T00:30:47.812Z,12.63
2018-07-25T00:31:53.347Z,12.60
2018-07-25T00:32:58.790Z,12.37
2018-07-25T00:34:04.203Z,13.03
2018-07-25T00:35:09.665Z,13.40
2018-07-25T00:36:15.107Z,11.90
2018-07-25T00:37:20.531Z,12.30
2018-07-25T00:38:26.057Z,12.63
2018-07-25T00:39:31.600Z,12.87
2018-07-25T00:40:37.006Z,12.63
2018-07-25T00:41:42.481Z,12.47
2018-07-25T00:42:47.925Z,13.30
2018-07-25T00:43:53.406Z,12.00
2018-07-25T00:44:58.849Z,12.70
2018-07-25T00:46:04.372Z,13.60
2018-07-25T00:47:09.816Z,13.00
2018-07-25T00:48:15.241Z,12.87
2018-07-25T00:49:20.722Z,12.90
2018-07-25T00:50:26.421Z,12.67
2018-07-25T00:51:32.021Z,11.60
2018-07-25T00:52:37.452Z,12.33
2018-07-25T00:53:42.921Z,12.43
2018-07-25T00:54:48.450Z,12.20
2018-07-25T00:55:53.930Z,12.13
2018-07-25T00:56:59.358Z,12.80
2018-07-25T00:58:04.840Z,12.80
2018-07-25T00:59:10.621Z,12.33
2018-07-25T01:00:17.111Z,13.57
2018-07-25T01:01:22.607Z,12.77
2018-07-25T01:02:28.090Z,11.77
2018-07-25T01:03:33.569Z,12.63
2018-07-25T01:04:39.054Z,12.40
2018-07-25T01:05:44.544Z,12.17
2018-07-25T01:06:50.351Z,13.67
2018-07-25T01:07:55.809Z,12.87
2018-07-25T01:09:01.231Z,14.30
2018-07-25T01:10:06.913Z,13.00
2018-07-25T01:11:12.356Z,12.97
2018-07-25T01:12:17.881Z,14.60
2018-07-25T01:13:23.596Z,13.00
2018-07-25T01:14:29.030Z,14.77
2018-07-25T01:15:34.481Z,13.53
2018-07-25T01:16:39.893Z,14.73
2018-07-25T01:17:45.413Z,14.40
2018-07-25T01:18:50.891Z,14.23
2018-07-25T01:19:56.382Z,13.70
2018-07-25T01:21:01.829Z,14.20
2018-07-25T01:22:07.216Z,14.87
2018-07-25T01:23:12.720Z,14.47
2018-07-25T01:24:18.209Z,13.97
2018-07-25T01:25:23.903Z,13.70
2018-07-25T01:26:29.380Z,14.60
2018-07-25T01:27:34.853Z,15.43
2018-07-25T01:28:40.312Z,14.60
2018-07-25T01:29:45.836Z,13.17
2018-07-25T01:30:51.409Z,13.60
2018-07-25T01:31:56.858Z,13.30
2018-07-25T01:33:02.296Z,13.93
2018-07-25T01:34:07.728Z,14.20
2018-07-25T01:35:13.577Z,14.57
2018-07-25T01:36:19.062Z,13.00
2018-07-25T01:37:24.739Z,14.80
2018-07-25T01:38:30.186Z,14.97
2018-07-25T01:39:35.621Z,14.93
2018-07-25T01:40:41.087Z,15.50
2018-07-25T01:41:46.540Z,14.40
2018-07-25T01:42:52.021Z,15.87
2018-07-25T01:43:57.518Z,14.97
2018-07-25T01:45:02.932Z,16.50
2018-07-25T01:46:08.376Z,15.00
2018-07-25T01:47:13.883Z,14.40
2018-07-25T01:48:19.329Z,15.07
2018-07-25T01:49:25.065Z,14.10
2018-07-25T01:50:30.489Z,14.73
2018-07-25T01:51:35.929Z,14.43
2018-07-25T01:52:41.448Z,14.90
2018-07-25T01:53:46.893Z,14.90
2018-07-25T01:54:52.390Z,15.50
2018-07-25T01:55:57.829Z,15.60
2018-07-25T01:57:03.241Z,15.17
2018-07-25T01:58:08.772Z,13.97
2018-07-25T01:59:14.253Z,15.03
2018-07-25T02:00:19.775Z,14.50
2018-07-25T02:01:25.359Z,15.23
2018-07-25T02:02:30.760Z,14.60
2018-07-25T02:03:36.180Z,16.17
2018-07-25T02:04:41.556Z,15.90
2018-07-25T02:05:47.036Z,14.27
2018-07-25T02:06:52.528Z,15.63
2018-07-25T02:07:58.097Z,15.43
2018-07-25T02:09:03.850Z,14.90
2018-07-25T02:10:09.388Z,14.23
2018-07-25T02:11:14.804Z,14.80
2018-07-25T02:12:20.292Z,15.47
2018-07-25T02:13:26.105Z,14.13
2018-07-25T02:14:31.519Z,14.07
2018-07-25T02:15:37.003Z,14.20
2018-07-25T02:16:42.425Z,15.37
2018-07-25T02:17:47.874Z,13.77
2018-07-25T02:18:53.360Z,14.03
2018-07-25T02:19:58.815Z,14.10
2018-07-25T02:21:04.260Z,14.07
2018-07-25T02:22:09.665Z,13.63
2018-07-25T02:23:15.103Z,16.30
2018-07-25T02:24:20.570Z,15.40
2018-07-25T02:25:26.034Z,16.47
2018-07-25T02:26:31.473Z,14.60
2018-07-25T02:27:36.973Z,15.43
2018-07-25T02:28:42.388Z,14.30
2018-07-25T02:29:47.481Z,14.37
2018-07-25T02:30:52.959Z,15.63
2018-07-25T02:31:58.384Z,14.47
2018-07-25T02:33:03.855Z,16.47
2018-07-25T02:34:14.553Z,16.03
2018-07-25T02:35:20.025Z,15.53
2018-07-25T02:36:25.505Z,15.53
2018-07-25T02:37:30.976Z,16.30
2018-07-25T02:38:36.422Z,16.60
2018-07-25T02:39:41.862Z,16.90
2018-07-25T02:40:47.709Z,16.93
2018-07-25T02:41:53.182Z,17.47
2018-07-25T02:42:58.602Z,17.77
2018-07-25T02:44:03.997Z,17.27
2018-07-25T02:45:09.474Z,16.90
2018-07-25T02:46:15.237Z,17.30
2018-07-25T02:47:20.701Z,16.33
2018-07-25T02:48:26.185Z,16.90
2018-07-25T02:49:31.606Z,15.70
2018-07-25T02:50:37.073Z,16.23
2018-07-25T02:51:42.661Z,17.43
2018-07-25T02:52:48.485Z,17.20
2018-07-25T02:53:53.949Z,16.10
2018-07-25T02:54:59.405Z,15.90
2018-07-25T02:56:05.265Z,15.87
2018-07-25T02:57:11.053Z,16.13
2018-07-25T02:58:16.553Z,15.33
2018-07-25T02:59:22.770Z,16.27
2018-07-25T03:00:28.229Z,16.50
2018-07-25T03:01:34.189Z,15.67
2018-07-25T03:02:39.658Z,15.30
2018-07-25T03:03:45.069Z,15.93
2018-07-25T03:04:50.915Z,17.47
2018-07-25T03:05:56.357Z,16.40
2018-07-25T03:07:01.436Z,16.57
2018-07-25T03:08:07.153Z,18.23
2018-07-25T03:09:12.739Z,17.00
2018-07-25T03:10:18.380Z,18.23
2018-07-25T03:11:23.869Z,17.67
2018-07-25T03:12:29.296Z,17.00
2018-07-25T03:13:34.728Z,16.03
2018-07-25T03:14:40.127Z,17.33
2018-07-25T03:15:45.609Z,18.33
2018-07-25T03:16:51.066Z,15.77
2018-07-25T03:17:56.559Z,17.57
2018-07-25T03:19:02.003Z,17.60
2018-07-25T03:20:07.457Z,16.73
2018-07-25T03:21:12.922Z,15.33
2018-07-25T03:22:18.453Z,16.77
2018-07-25T03:23:24.136Z,16.47
2018-07-25T03:24:29.590Z,18.07
2018-07-25T03:25:35.013Z,17.20
2018-07-25T03:26:40.465Z,16.00
2018-07-25T03:27:45.876Z,16.03
2018-07-25T03:28:51.896Z,15.37
2018-07-25T03:29:57.721Z,17.33
2018-07-25T03:31:03.204Z,16.73
2018-07-25T03:32:08.708Z,15.50
2018-07-25T03:33:14.118Z,16.47
2018-07-25T03:34:19.617Z,17.40
2018-07-25T03:35:25.105Z,16.87
2018-07-25T03:36:30.557Z,15.83
2018-07-25T03:37:36.141Z,17.13
2018-07-25T03:38:41.638Z,15.80
2018-07-25T03:39:47.045Z,16.40
2018-07-25T03:40:52.557Z,16.60
2018-07-25T03:41:57.981Z,15.80
2018-07-25T03:43:03.813Z,15.97
2018-07-25T03:44:09.270Z,16.40
2018-07-25T03:45:14.766Z,15.97
2018-07-25T03:46:20.340Z,15.23
2018-07-25T03:47:25.837Z,15.60
2018-07-25T03:48:31.285Z,16.77
2018-07-25T03:49:36.792Z,17.00
2018-07-25T03:50:42.268Z,16.20
2018-07-25T03:51:47.776Z,15.60
2018-07-25T03:52:53.255Z,15.37
2018-07-25T03:53:58.675Z,15.33
2018-07-25T03:55:04.158Z,14.60
2018-07-25T03:56:09.617Z,15.37
2018-07-25T03:57:15.141Z,13.83
2018-07-25T03:58:20.802Z,14.40
2018-07-25T03:59:26.290Z,14.20
2018-07-25T04:00:31.734Z,14.00
2018-07-25T04:01:37.193Z,13.63
2018-07-25T04:02:42.779Z,13.50
2018-07-25T04:03:48.182Z,14.13
2018-07-25T04:04:53.696Z,15.17
2018-07-25T04:05:59.124Z,13.40
2018-07-25T04:07:04.571Z,13.60
2018-07-25T04:08:10.066Z,13.57
2018-07-25T04:09:15.520Z,12.97
2018-07-25T04:10:20.985Z,13.23
2018-07-25T04:11:26.445Z,12.90
2018-07-25T04:12:31.905Z,12.03
2018-07-25T04:13:37.325Z,13.13
2018-07-25T04:14:42.801Z,12.47
2018-07-25T04:15:49.468Z,13.70
2018-07-25T04:16:54.969Z,12.40
2018-07-25T04:18:00.445Z,13.00
2018-07-25T04:19:06.045Z,13.03
2018-07-25T04:20:12.208Z,11.80
2018-07-25T04:21:17.650Z,11.80
2018-07-25T04:22:23.360Z,13.23
2018-07-25T04:23:28.908Z,10.93
2018-07-25T04:24:34.385Z,11.50
2018-07-25T04:25:39.811Z,11.63
2018-07-25T04:26:45.249Z,11.80
2018-07-25T04:27:50.709Z,11.83
2018-07-25T04:28:56.146Z,10.87
2018-07-25T04:30:01.570Z,11.03
2018-07-25T04:31:07.364Z,11.13
2018-07-25T04:32:12.912Z,10.40
2018-07-25T04:33:18.980Z,10.27
2018-07-25T04:34:24.620Z,12.03
2018-07-25T04:35:30.062Z,10.57
2018-07-25T04:36:35.472Z,11.17
2018-07-25T04:37:41.369Z,10.73
2018-07-25T04:38:46.795Z,11.60
2018-07-25T04:39:52.644Z,11.20
2018-07-25T04:40:58.149Z,10.53
2018-07-25T04:42:03.609Z,10.53
2018-07-25T04:43:09.109Z,10.97
2018-07-25T04:44:15.050Z,10.40
2018-07-25T04:45:20.545Z,10.50
2018-07-25T04:46:26.124Z,11.07
2018-07-25T04:47:31.501Z,10.37
2018-07-25T04:48:36.924Z,10.80
2018-07-25T04:49:42.385Z,10.80
2018-07-25T04:50:47.800Z,12.30
2018-07-25T04:51:53.265Z,12.03
2018-07-25T04:52:58.761Z,11.00
2018-07-25T04:54:03.900Z,11.10
2018-07-25T04:55:09.228Z,11.60
2018-07-25T04:56:14.755Z,11.50
2018-07-25T04:57:20.135Z,10.20
2018-07-25T04:58:26.218Z,10.57
2018-07-25T04:59:31.766Z,11.13
2018-07-25T05:00:37.168Z,11.17
2018-07-25T05:01:42.584Z,10.97
2018-07-25T05:02:48.164Z,12.23
2018-07-25T05:03:53.929Z,10.60
2018-07-25T05:04:59.449Z,12.23
2018-07-25T05:06:04.912Z,10.80
2018-07-25T05:07:10.427Z,10.40
2018-07-25T05:08:15.784Z,11.27
2018-07-25T05:09:21.282Z,12.73
2018-07-25T05:10:26.786Z,12.00
2018-07-25T05:11:32.228Z,12.10
2018-07-25T05:12:37.733Z,11.53
2018-07-25T05:13:42.808Z,11.73
2018-07-25T05:14:47.841Z,11.37
2018-07-25T05:15:53.218Z,10.63
2018-07-25T05:16:58.741Z,11.00
2018-07-25T05:18:04.265Z,12.10
2018-07-25T05:19:09.752Z,11.83
2018-07-25T05:20:15.230Z,12.33
2018-07-25T05:21:20.785Z,12.00
2018-07-25T05:22:26.246Z,12.70
2018-07-25T05:23:31.696Z,12.13
2018-07-25T05:24:37.581Z,11.70
2018-07-25T05:25:43.037Z,12.83
2018-07-25T05:26:48.526Z,12.07
2018-07-25T05:27:54.035Z,13.07
2018-07-25T05:28:59.455Z,13.03
2018-07-25T05:30:05.340Z,12.00
2018-07-25T05:31:10.768Z,12.57
2018-07-25T05:32:16.186Z,12.47
2018-07-25T05:33:21.654Z,12.10
2018-07-25T05:34:27.097Z,12.53
2018-07-25T05:35:32.868Z,13.50
2018-07-25T05:36:38.337Z,12.93
2018-07-25T05:37:43.766Z,12.90
2018-07-25T05:38:49.317Z,12.60
2018-07-25T05:39:54.859Z,13.80
2018-07-25T05:41:00.296Z,12.50
2018-07-25T05:42:05.729Z,14.10
2018-07-25T05:43:11.145Z,13.53
2018-07-25T05:44:16.564Z,14.47
2018-07-25T05:45:21.868Z,13.23
2018-07-25T05:46:27.245Z,12.57
2018-07-25T05:47:32.362Z,12.73
2018-07-25T05:48:37.797Z,13.17
2018-07-25T05:49:43.243Z,12.57
2018-07-25T05:50:48.698Z,13.70
2018-07-25T05:51:54.256Z,12.33
2018-07-25T05:52:59.909Z,13.30
2018-07-25T05:54:05.392Z,13.10
2018-07-25T05:55:10.800Z,12.40
2018-07-25T05:56:16.188Z,13.70
2018-07-25T05:57:21.668Z,12.20
2018-07-25T05:58:27.209Z,11.90
2018-07-25T05:59:32.656Z,12.57
2018-07-25T06:00:38.123Z,12.30
2018-07-25T06:01:43.681Z,13.20
2018-07-25T06:02:49.408Z,13.53
2018-07-25T06:03:54.870Z,11.50
2018-07-25T06:05:00.470Z,13.03
2018-07-25T06:06:06.407Z,12.10
2018-07-25T06:07:11.854Z,11.57
2018-07-25T06:08:17.372Z,12.20
2018-07-25T06:09:22.840Z,12.57
2018-07-25T06:10:28.383Z,11.93
2018-07-25T06:11:33.868Z,11.07
2018-07-25T06:12:39.296Z,12.17
2018-07-25T06:13:44.737Z,11.63
2018-07-25T06:14:50.200Z,11.93
2018-07-25T06:15:55.597Z,13.30
2018-07-25T06:17:01.426Z,12.17
2018-07-25T06:18:06.877Z,11.53
2018-07-25T06:19:12.313Z,11.23
2018-07-25T06:20:17.785Z,12.20
2018-07-25T06:21:23.328Z,11.00
2018-07-25T06:22:29.176Z,11.13
2018-07-25T06:23:34.620Z,11.50
2018-07-25T06:24:40.221Z,11.13
2018-07-25T06:25:45.687Z,11.60
2018-07-25T06:26:51.997Z,11.30
2018-07-25T06:27:57.673Z,11.57
2018-07-25T06:29:03.059Z,10.30
2018-07-25T06:30:08.524Z,10.37
2018-07-25T06:31:13.986Z,11.50
2018-07-25T06:32:19.343Z,12.03
2018-07-25T06:33:26.197Z,10.90
2018-07-25T06:34:31.608Z,11.80
2018-07-25T06:35:37.084Z,10.80
2018-07-25T06:36:42.525Z,11.53
2018-07-25T06:37:47.952Z,11.10
2018-07-25T06:38:53.503Z,11.43
2018-07-25T06:39:58.991Z,11.00
2018-07-25T06:41:04.414Z,11.00
2018-07-25T06:42:09.812Z,12.27
2018-07-25T06:43:15.307Z,11.60
2018-07-25T06:44:20.771Z,10.70
2018-07-25T06:45:26.279Z,10.33
2018-07-25T06:46:31.678Z,9.87
2018-07-25T06:47:37.317Z,9.63
2018-07-25T06:48:42.724Z,10.03
2018-07-25T06:49:48.148Z,12.10
2018-07-25T06:50:53.696Z,11.90
2018-07-25T06:51:59.123Z,10.63
2018-07-25T06:53:04.966Z,10.50
2018-07-25T06:54:10.385Z,10.73
2018-07-25T06:55:15.812Z,11.67
2018-07-25T06:56:21.273Z,11.30
2018-07-25T06:57:26.759Z,10.90
2018-07-25T06:58:32.440Z,10.93
2018-07-25T06:59:38.073Z,10.97
2018-07-25T07:00:43.493Z,10.50
2018-07-25T07:01:48.612Z,9.50
2018-07-25T07:02:53.967Z,10.87
2018-07-25T07:03:59.856Z,10.77
2018-07-25T07:05:05.737Z,10.60
2018-07-25T07:06:11.191Z,10.53
2018-07-25T07:07:16.593Z,9.67
2018-07-25T07:08:22.067Z,10.33
2018-07-25T07:09:27.476Z,9.90
2018-07-25T07:10:32.925Z,9.90
2018-07-25T07:11:38.441Z,11.00
2018-07-25T07:12:43.909Z,10.33
2018-07-25T07:13:49.743Z,9.77
2018-07-25T07:14:55.588Z,9.67
2018-07-25T07:16:01.081Z,11.10
2018-07-25T07:17:06.538Z,11.50
2018-07-25T07:18:11.932Z,8.90
2018-07-25T07:19:17.335Z,9.20
2018-07-25T07:20:23.028Z,10.17
2018-07-25T07:21:28.478Z,9.13
2018-07-25T07:22:33.934Z,8.37
2018-07-25T07:23:39.347Z,10.13
2018-07-25T07:24:44.786Z,9.40
2018-07-25T07:25:50.423Z,10.00
2018-07-25T07:26:55.841Z,9.20
2018-07-25T07:28:01.266Z,10.43
2018-07-25T07:29:07.841Z,8.10
2018-07-25T07:30:13.288Z,8.60
2018-07-25T07:31:18.761Z,8.60
2018-07-25T07:32:24.273Z,9.13
2018-07-25T07:33:29.762Z,8.50
2018-07-25T07:34:35.266Z,9.47
2018-07-25T07:35:40.701Z,9.00
2018-07-25T07:36:46.110Z,8.57
2018-07-25T07:37:51.559Z,9.23
2018-07-25T07:38:57.077Z,9.30
2018-07-25T07:40:02.521Z,8.97
2018-07-25T07:41:08.010Z,9.40
2018-07-25T07:42:13.466Z,8.60
2018-07-25T07:43:18.889Z,8.57
2018-07-25T07:44:24.436Z,10.50
2018-07-25T07:45:29.863Z,9.20
2018-07-25T07:46:35.629Z,12.47
2018-07-25T07:47:40.813Z,8.90
2018-07-25T07:48:46.142Z,7.70
2018-07-25T07:49:51.645Z,8.47
2018-07-25T07:50:57.113Z,7.80
2018-07-25T07:52:02.592Z,8.97
2018-07-25T07:53:08.112Z,8.10
2018-07-25T07:54:13.522Z,8.00
2018-07-25T07:55:19.358Z,8.50
2018-07-25T07:56:24.813Z,7.57
2018-07-25T07:57:30.248Z,7.50
2018-07-25T07:58:35.697Z,7.70
2018-07-25T07:59:41.130Z,6.80
2018-07-25T08:00:46.608Z,6.33
2018-07-25T08:01:52.328Z,7.93
2018-07-25T08:02:57.730Z,7.47
2018-07-25T08:04:03.196Z,8.20
2018-07-25T08:05:08.661Z,8.10
2018-07-25T08:06:14.128Z,7.47
2018-07-25T08:07:19.580Z,7.43
2018-07-25T08:08:25.234Z,7.50
2018-07-25T08:09:30.638Z,7.37
2018-07-25T08:10:36.117Z,8.73
2018-07-25T08:11:41.888Z,7.00
2018-07-25T08:12:47.356Z,7.00
2018-07-25T08:13:52.870Z,6.97
2018-07-25T08:14:58.285Z,7.47
2018-07-25T08:16:03.684Z,6.90
2018-07-25T08:17:09.494Z,7.00
2018-07-25T08:18:14.925Z,6.90
2018-07-25T08:19:20.447Z,7.90
2018-07-25T08:20:26.036Z,7.20
2018-07-25T08:21:31.515Z,8.53
2018-07-25T08:22:36.983Z,6.80
2018-07-25T08:23:43.543Z,6.20
2018-07-25T08:24:48.947Z,8.60
2018-07-25T08:25:54.438Z,6.73
2018-07-25T08:26:59.868Z,8.27
2018-07-25T08:28:05.378Z,7.43
2018-07-25T08:29:10.793Z,7.77
2018-07-25T08:30:16.209Z,6.70
2018-07-25T08:31:21.809Z,6.23
2018-07-25T08:32:27.421Z,6.97
2018-07-25T08:33:32.968Z,6.47
2018-07-25T08:34:38.451Z,5.30
2018-07-25T08:35:43.841Z,6.43
2018-07-25T08:36:49.457Z,5.97
2018-07-25T08:37:54.898Z,5.83
2018-07-25T08:39:00.312Z,5.80
2018-07-25T08:40:06.435Z,6.63
2018-07-25T08:41:11.972Z,5.83
2018-07-25T08:42:17.474Z,5.90
2018-07-25T08:43:22.912Z,5.80
2018-07-25T08:44:28.437Z,6.00
2018-07-25T08:45:33.543Z,5.30
2018-07-25T08:46:38.853Z,5.87
2018-07-25T08:47:44.257Z,6.20
2018-07-25T08:48:49.381Z,5.37
2018-07-25T08:49:54.933Z,5.70
2018-07-25T08:51:00.400Z,5.63
2018-07-25T08:52:05.965Z,5.43
2018-07-25T08:53:11.431Z,6.00
2018-07-25T08:54:16.873Z,5.20
2018-07-25T08:55:22.405Z,5.77
2018-07-25T08:56:27.853Z,4.57
2018-07-25T08:57:33.282Z,5.07
2018-07-25T08:58:38.757Z,5.33
2018-07-25T08:59:44.183Z,6.00
2018-07-25T09:00:50.081Z,4.90
2018-07-25T09:01:55.558Z,5.10
2018-07-25T09:03:00.975Z,4.87
2018-07-25T09:04:06.663Z,4.80
2018-07-25T09:05:12.155Z,4.13
2018-07-25T09:06:17.619Z,4.70
2018-07-25T09:07:23.124Z,4.20
2018-07-25T09:08:28.549Z,5.67
2018-07-25T09:09:34.020Z,5.00
2018-07-25T09:10:39.747Z,4.97
2018-07-25T09:11:45.247Z,5.50
2018-07-25T09:12:50.778Z,4.87
2018-07-25T09:13:56.899Z,3.90
2018-07-25T09:15:02.335Z,5.93
2018-07-25T09:16:07.797Z,5.87
2018-07-25T09:17:13.288Z,5.20
2018-07-25T09:18:18.817Z,5.00
2018-07-25T09:19:24.260Z,4.30
2018-07-25T09:20:29.700Z,4.47
2018-07-25T09:21:34.841Z,4.50
2018-07-25T09:22:40.219Z,5.80
2018-07-25T09:23:45.673Z,5.07
2018-07-25T09:24:51.153Z,4.67
2018-07-25T09:25:56.630Z,4.30
2018-07-25T09:27:02.101Z,4.37
2018-07-25T09:28:07.545Z,4.70
2018-07-25T09:29:13.012Z,4.43
2018-07-25T09:30:18.838Z,3.90
2018-07-25T09:31:24.728Z,4.50
2018-07-25T09:32:30.185Z,4.30
2018-07-25T09:33:35.622Z,4.67
2018-07-25T09:34:41.481Z,4.80
2018-07-25T09:35:46.917Z,4.50
2018-07-25T09:36:52.378Z,4.57
2018-07-25T09:37:57.890Z,4.30
2018-07-25T09:39:03.475Z,4.53
2018-07-25T09:40:08.929Z,4.27
2018-07-25T09:41:14.404Z,4.23
2018-07-25T09:42:19.834Z,4.40
2018-07-25T09:43:25.344Z,4.30
2018-07-25T09:44:30.754Z,4.50
2018-07-25T09:45:36.258Z,4.47
2018-07-25T09:46:41.785Z,4.43
2018-07-25T09:47:47.077Z,4.30
2018-07-25T09:48:52.720Z,4.10
2018-07-25T09:49:58.154Z,3.80
2018-07-25T09:51:03.722Z,4.37
2018-07-25T09:52:09.207Z,3.97
2018-07-25T09:53:14.714Z,5.23
2018-07-25T09:54:20.070Z,4.50
2018-07-25T09:55:25.617Z,4.87
2018-07-25T09:56:31.056Z,5.30
2018-07-25T09:57:36.884Z,4.40
2018-07-25T09:58:42.306Z,5.23
2018-07-25T09:59:47.745Z,4.50
2018-07-25T10:00:53.281Z,4.10
2018-07-25T10:01:58.729Z,4.63
2018-07-25T10:03:04.285Z,4.07
2018-07-25T10:04:09.714Z,3.90
2018-07-25T10:05:15.223Z,4.10
2018-07-25T10:06:20.702Z,4.30
2018-07-25T10:07:25.945Z,4.70
2018-07-25T10:08:31.236Z,4.27
2018-07-25T10:09:36.700Z,4.03
2018-07-25T10:10:42.405Z,5.27
2018-07-25T10:11:47.879Z,4.87
2018-07-25T10:12:53.528Z,4.00
2018-07-25T10:13:58.937Z,4.00
2018-07-25T10:15:04.520Z,4.23
2018-07-25T10:16:10.017Z,4.27
2018-07-25T10:17:15.489Z,4.67
2018-07-25T10:18:21.013Z,4.30
2018-07-25T10:19:26.602Z,3.80
2018-07-25T10:20:32.120Z,4.37
2018-07-25T10:21:37.634Z,4.73
2018-07-25T10:22:43.093Z,4.60
2018-07-25T10:23:48.879Z,4.43
2018-07-25T10:24:54.359Z,4.37
2018-07-25T10:25:59.888Z,5.20
2018-07-25T10:27:05.347Z,4.73
2018-07-25T10:28:10.772Z,3.90
2018-07-25T10:29:16.233Z,3.80
2018-07-25T10:30:22.249Z,4.27
2018-07-25T10:31:27.730Z,4.47
2018-07-25T10:32:33.225Z,4.97
2018-07-25T10:33:38.618Z,4.03
2018-07-25T10:34:44.169Z,4.23
2018-07-25T10:35:49.592Z,3.83
2018-07-25T10:36:55.036Z,4.50
2018-07-25T10:38:00.474Z,4.63
2018-07-25T10:39:09.296Z,3.93
2018-07-25T10:40:14.645Z,4.50
2018-07-25T10:41:20.112Z,3.93
2018-07-25T10:42:25.532Z,4.30
2018-07-25T10:43:30.973Z,4.13
2018-07-25T10:44:36.484Z,3.43
2018-07-25T10:45:42.050Z,4.63
2018-07-25T10:46:47.462Z,4.67
2018-07-25T10:47:52.975Z,4.50
2018-07-25T10:48:58.825Z,5.20
2018-07-25T10:50:05.057Z,3.63
2018-07-25T10:51:10.512Z,4.37
2018-07-25T10:52:15.928Z,5.13
2018-07-25T10:53:21.472Z,4.70
2018-07-25T10:54:26.659Z,5.33
2018-07-25T10:55:32.042Z,4.10
2018-07-25T10:56:37.448Z,4.80
2018-07-25T10:57:42.897Z,4.47
2018-07-25T10:58:48.284Z,4.43
2018-07-25T10:59:53.890Z,5.63
2018-07-25T11:00:59.356Z,4.90
2018-07-25T11:02:04.934Z,4.00
2018-07-25T11:03:10.293Z,3.87
2018-07-25T11:04:15.744Z,4.93
2018-07-25T11:05:21.248Z,4.83
2018-07-25T11:06:26.789Z,4.63
2018-07-25T11:07:32.246Z,4.73
2018-07-25T11:08:37.648Z,5.13
2018-07-25T11:09:43.155Z,4.33
2018-07-25T11:10:48.813Z,4.93
2018-07-25T11:11:54.246Z,5.43
2018-07-25T11:12:59.719Z,3.90
2018-07-25T11:14:05.262Z,4.33
2018-07-25T11:15:10.725Z,5.00
2018-07-25T11:16:16.410Z,4.27
2018-07-25T11:17:22.442Z,4.93
2018-07-25T11:18:27.927Z,4.50
2018-07-25T11:19:33.378Z,4.20
2018-07-25T11:20:38.798Z,4.50
2018-07-25T11:21:44.279Z,4.60
2018-07-25T11:22:49.781Z,4.10
2018-07-25T11:23:55.206Z,6.10
2018-07-25T11:25:00.666Z,4.27
2018-07-25T11:26:06.115Z,4.40
2018-07-25T11:27:11.682Z,4.50
2018-07-25T11:28:17.112Z,4.73
2018-07-25T11:29:22.867Z,4.33
2018-07-25T11:30:28.415Z,4.63
2018-07-25T11:31:33.805Z,4.63
2018-07-25T11:32:39.257Z,4.13
2018-07-25T11:33:45.049Z,5.23
2018-07-25T11:34:50.565Z,4.73
2018-07-25T11:35:56.115Z,5.53
2018-07-25T11:37:01.590Z,4.00
2018-07-25T11:38:07.031Z,5.17
2018-07-25T11:39:13.994Z,4.90
2018-07-25T11:40:19.482Z,4.97
2018-07-25T11:41:24.988Z,5.07
2018-07-25T11:42:30.380Z,4.57
2018-07-25T11:43:35.867Z,4.83
2018-07-25T11:44:41.225Z,4.07
2018-07-25T11:45:46.705Z,4.97
2018-07-25T11:46:52.196Z,5.00
2018-07-25T11:47:57.628Z,4.77
2018-07-25T11:49:03.088Z,4.50
2018-07-25T11:50:08.732Z,4.53
2018-07-25T11:51:14.120Z,4.30
2018-07-25T11:52:20.025Z,4.47
2018-07-25T11:53:25.505Z,4.37
2018-07-25T11:54:30.945Z,4.70
2018-07-25T11:55:37.065Z,4.30
2018-07-25T11:56:42.448Z,4.33
2018-07-25T11:57:47.902Z,4.10
2018-07-25T11:58:53.416Z,4.27
2018-07-25T11:59:59.009Z,4.50
2018-07-25T12:01:04.876Z,4.77
2018-07-25T12:02:10.253Z,4.50
2018-07-25T12:03:15.693Z,4.60
2018-07-25T12:04:21.140Z,4.97
2018-07-25T12:05:26.603Z,4.87
2018-07-25T12:06:32.120Z,5.37
2018-07-25T12:07:37.143Z,4.33
2018-07-25T12:08:42.536Z,4.20
2018-07-25T12:09:47.994Z,4.90
2018-07-25T12:10:53.459Z,5.67
2018-07-25T12:11:59.000Z,4.93
2018-07-25T12:13:04.642Z,4.60
2018-07-25T12:14:10.054Z,4.50
2018-07-25T12:15:15.489Z,4.13
2018-07-25T12:16:20.976Z,4.20
2018-07-25T12:17:26.865Z,4.10
2018-07-25T12:18:32.294Z,4.77
2018-07-25T12:19:37.725Z,4.23
2018-07-25T12:20:43.208Z,4.40
2018-07-25T12:21:48.698Z,4.90
2018-07-25T12:22:54.271Z,5.10
2018-07-25T12:23:59.704Z,4.73
2018-07-25T12:25:05.902Z,4.63
2018-07-25T12:26:11.401Z,4.80
2018-07-25T12:27:16.844Z,4.70
2018-07-25T12:28:22.342Z,4.40
2018-07-25T12:29:27.805Z,5.30
2018-07-25T12:30:33.286Z,4.77
2018-07-25T12:31:38.731Z,4.93
2018-07-25T12:32:44.185Z,4.80
2018-07-25T12:33:49.661Z,4.57
2018-07-25T12:34:55.320Z,4.27
2018-07-25T12:36:00.854Z,4.37
2018-07-25T12:37:06.319Z,4.40
2018-07-25T12:38:11.791Z,5.03
2018-07-25T12:39:17.237Z,4.27
2018-07-25T12:40:23.124Z,4.40
2018-07-25T12:41:28.634Z,4.37
2018-07-25T12:42:34.094Z,5.00
2018-07-25T12:43:39.591Z,4.80
2018-07-25T12:44:45.002Z,4.47
2018-07-25T12:45:51.340Z,4.73
2018-07-25T12:46:56.916Z,4.70
2018-07-25T12:48:02.325Z,4.77
2018-07-25T12:49:07.785Z,4.43
2018-07-25T12:50:13.192Z,3.73
2018-07-25T12:51:18.692Z,4.20
2018-07-25T12:52:24.165Z,4.90
2018-07-25T12:53:29.642Z,4.60
2018-07-25T12:54:35.096Z,4.77
2018-07-25T12:55:40.561Z,4.77
2018-07-25T12:56:46.093Z,4.20
2018-07-25T12:57:51.602Z,4.60
2018-07-25T12:58:57.072Z,5.03
2018-07-25T13:00:02.540Z,4.10
2018-07-25T13:01:08.001Z,5.03
2018-07-25T13:02:13.589Z,4.33
2018-07-25T13:03:19.028Z,4.30
2018-07-25T13:04:24.555Z,4.50
2018-07-25T13:05:30.048Z,5.00
2018-07-25T13:06:35.499Z,5.00
2018-07-25T13:07:40.989Z,4.77
2018-07-25T13:08:46.446Z,4.53
2018-07-25T13:09:51.930Z,4.50
2018-07-25T13:10:57.429Z,4.50
2018-07-25T13:12:02.914Z,5.00
2018-07-25T13:13:08.398Z,5.20
2018-07-25T13:14:13.861Z,4.70
2018-07-25T13:15:19.653Z,4.83
2018-07-25T13:16:25.104Z,4.60
2018-07-25T13:17:30.604Z,4.83
2018-07-25T13:18:36.073Z,4.93
2018-07-25T13:19:41.472Z,5.20
2018-07-25T13:20:46.952Z,4.43
2018-07-25T13:21:52.449Z,5.20
2018-07-25T13:22:57.960Z,4.43
2018-07-25T13:24:03.450Z,4.80
2018-07-25T13:25:08.912Z,4.80
2018-07-25T13:26:14.353Z,4.50
2018-07-25T13:27:19.821Z,4.80
2018-07-25T13:28:25.482Z,5.07
2018-07-25T13:29:30.894Z,4.90
2018-07-25T13:30:36.421Z,4.70
2018-07-25T13:31:41.886Z,4.67
2018-07-25T13:32:47.293Z,4.00
2018-07-25T13:33:52.970Z,5.10
2018-07-25T13:34:58.077Z,4.47
2018-07-25T13:36:03.566Z,4.80
2018-07-25T13:37:09.457Z,5.33
2018-07-25T13:38:14.874Z,4.80
2018-07-25T13:39:20.396Z,4.80
2018-07-25T13:40:25.878Z,5.07
2018-07-25T13:41:31.661Z,4.40
2018-07-25T13:42:37.102Z,4.70
2018-07-25T13:43:42.554Z,4.53
2018-07-25T13:44:47.988Z,5.00
2018-07-25T13:45:53.622Z,4.90
2018-07-25T13:46:59.182Z,4.13
2018-07-25T13:48:04.920Z,4.60
2018-07-25T13:49:10.418Z,4.67
2018-07-25T13:50:15.845Z,4.60
2018-07-25T13:51:21.370Z,5.27
2018-07-25T13:52:26.892Z,4.77
2018-07-25T13:53:32.353Z,4.07
2018-07-25T13:54:37.849Z,4.80
2018-07-25T13:55:43.975Z,4.80
2018-07-25T13:56:49.430Z,4.90
2018-07-25T13:57:55.036Z,5.40
2018-07-25T13:59:00.520Z,4.60
2018-07-25T14:00:08.310Z,5.00
2018-07-25T14:01:13.750Z,4.63
2018-07-25T14:02:19.405Z,5.10
2018-07-25T14:03:24.862Z,5.03
2018-07-25T14:04:30.540Z,4.50
2018-07-25T14:05:35.991Z,4.53
2018-07-25T14:06:41.456Z,4.47
2018-07-25T14:07:46.906Z,4.33
2018-07-25T14:08:52.449Z,4.77
2018-07-25T14:09:58.169Z,5.03
2018-07-25T14:11:03.630Z,3.90
2018-07-25T14:12:09.160Z,4.27
2018-07-25T14:13:14.597Z,4.70
2018-07-25T14:14:20.326Z,4.77
2018-07-25T14:15:25.822Z,4.67
2018-07-25T14:16:31.318Z,4.60
2018-07-25T14:17:36.812Z,4.43